createdAt,value
2017-12-12T00:01:41.667Z,71.84
2017-12-12T00:04:09.175Z,72.90
2017-12-12T00:06:36.677Z,72.91
2017-12-12T00:09:04.172Z,72.66
2017-12-12T00:11:31.670Z,73.48
2017-12-12T00:13:59.157Z,73.50
2017-12-12T00:16:26.649Z,72.89
2017-12-12T00:18:54.153Z,73.03
2017-12-12T00:21:21.636Z,72.97
2017-12-12T00:23:49.127Z,72.92
2017-12-12T00:26:16.642Z,73.66
2017-12-12T00:28:44.129Z,72.32
2017-12-12T00:31:11.621Z,74.41
2017-12-12T00:33:39.122Z,73.52
2017-12-12T00:36:06.637Z,73.01
2017-12-12T00:38:34.134Z,72.99
2017-12-12T00:41:01.633Z,73.44
2017-12-12T00:43:29.248Z,73.90
2017-12-12T00:45:56.739Z,74.17
2017-12-12T00:48:24.229Z,74.87
2017-12-12T00:50:51.738Z,75.06
2017-12-12T00:53:19.244Z,74.66
2017-12-12T00:55:46.739Z,75.21
2017-12-12T00:58:14.222Z,75.83
2017-12-12T01:00:41.729Z,74.96
2017-12-12T01:03:10.152Z,76.60
2017-12-12T01:05:37.658Z,76.84
2017-12-12T01:08:05.176Z,76.96
2017-12-12T01:10:32.760Z,76.62
2017-12-12T01:13:00.250Z,76.39
2017-12-12T01:15:27.758Z,76.53
2017-12-12T01:17:55.240Z,76.49
2017-12-12T01:20:22.749Z,76.59
2017-12-12T01:22:50.249Z,77.55
2017-12-12T01:25:17.744Z,76.29
2017-12-12T01:27:45.261Z,76.77
2017-12-12T01:30:12.761Z,76.37
2017-12-12T01:32:40.266Z,76.64
2017-12-12T01:35:07.749Z,76.75
2017-12-12T01:37:35.238Z,76.70
2017-12-12T01:40:02.728Z,76.84
2017-12-12T01:42:30.314Z,77.03
2017-12-12T01:44:57.799Z,75.95
2017-12-12T01:47:25.303Z,76.82
2017-12-12T01:49:52.809Z,76.83
2017-12-12T01:52:20.289Z,76.72
2017-12-12T01:54:47.784Z,75.64
2017-12-12T01:57:15.269Z,75.86
2017-12-12T01:59:42.853Z,74.80
2017-12-12T02:02:10.369Z,73.16
2017-12-12T02:04:37.868Z,73.07
2017-12-12T02:07:05.361Z,70.72
2017-12-12T02:09:32.847Z,69.26
2017-12-12T02:12:00.358Z,68.55
2017-12-12T02:14:27.874Z,68.19
2017-12-12T02:16:55.380Z,66.97
2017-12-12T02:19:22.897Z,67.67
2017-12-12T02:21:50.395Z,66.14
2017-12-12T02:24:17.881Z,65.29
2017-12-12T02:26:45.414Z,65.82
2017-12-12T02:29:12.924Z,65.45
2017-12-12T02:31:40.424Z,65.88
2017-12-12T02:34:09.990Z,65.56
2017-12-12T02:36:37.487Z,65.91
2017-12-12T02:39:04.978Z,67.03
2017-12-12T02:41:32.460Z,67.34
2017-12-12T02:43:59.966Z,66.08
2017-12-12T02:46:27.454Z,65.98
2017-12-12T02:48:54.977Z,66.97
2017-12-12T02:51:22.463Z,67.08
2017-12-12T02:53:49.977Z,67.61
2017-12-12T02:56:17.485Z,68.22
2017-12-12T02:58:44.973Z,69.40
2017-12-12T03:01:12.502Z,68.97
2017-12-12T03:03:40.001Z,68.66
2017-12-12T03:06:07.545Z,67.72
2017-12-12T03:08:35.041Z,67.18
2017-12-12T03:11:02.538Z,67.45
2017-12-12T03:13:30.036Z,66.62
2017-12-12T03:15:57.528Z,66.31
2017-12-12T03:18:25.032Z,67.06
2017-12-12T03:20:52.509Z,67.36
2017-12-12T03:23:20.005Z,67.06
2017-12-12T03:25:47.487Z,67.05
2017-12-12T03:28:15.037Z,68.00
2017-12-12T03:30:42.549Z,67.33
2017-12-12T03:33:10.032Z,67.39
2017-12-12T03:35:37.547Z,66.30
2017-12-12T03:38:05.041Z,66.24
2017-12-12T03:40:32.570Z,66.55
2017-12-12T03:43:00.060Z,67.33
2017-12-12T03:45:27.549Z,66.98
2017-12-12T03:47:55.029Z,67.66
2017-12-12T03:50:22.530Z,66.73
2017-12-12T03:52:50.281Z,67.08
2017-12-12T03:55:17.779Z,66.69
2017-12-12T03:57:45.272Z,66.09
2017-12-12T04:00:12.752Z,65.05
2017-12-12T04:02:40.261Z,64.97
2017-12-12T04:05:07.769Z,65.65
2017-12-12T04:07:35.252Z,65.50
2017-12-12T04:10:02.770Z,65.11
2017-12-12T04:12:30.428Z,65.29
2017-12-12T04:14:57.913Z,65.04
2017-12-12T04:17:25.417Z,64.40
2017-12-12T04:19:52.898Z,65.76
2017-12-12T04:22:20.385Z,65.18
2017-12-12T04:24:47.868Z,65.93
2017-12-12T04:27:15.366Z,65.82
2017-12-12T04:29:42.851Z,66.46
2017-12-12T04:32:10.392Z,65.46
2017-12-12T04:34:37.914Z,65.71
2017-12-12T04:37:05.399Z,66.68
2017-12-12T04:39:32.919Z,66.44
2017-12-12T04:42:00.404Z,66.57
2017-12-12T04:44:27.939Z,66.20
2017-12-12T04:46:55.427Z,66.31
2017-12-12T04:49:22.906Z,66.71
2017-12-12T04:51:50.441Z,65.92
2017-12-12T04:54:17.982Z,66.30
2017-12-12T04:56:45.512Z,65.86
2017-12-12T04:59:13.004Z,66.76
2017-12-12T05:01:40.494Z,66.24
2017-12-12T05:04:07.982Z,66.79
2017-12-12T05:06:35.479Z,66.92
2017-12-12T05:09:02.994Z,66.67
2017-12-12T05:11:30.480Z,67.84
2017-12-12T05:13:57.997Z,66.90
2017-12-12T05:16:25.497Z,67.16
2017-12-12T05:18:53.054Z,68.05
2017-12-12T05:21:22.470Z,67.57
2017-12-12T05:23:52.801Z,69.04
2017-12-12T05:26:21.246Z,68.04
2017-12-12T05:28:49.011Z,68.90
2017-12-12T05:31:16.506Z,69.35
2017-12-12T05:33:50.377Z,68.29
2017-12-12T05:36:17.853Z,69.62
2017-12-12T05:38:45.348Z,69.27
2017-12-12T05:41:12.847Z,69.62
2017-12-12T05:43:40.344Z,69.52
2017-12-12T05:46:07.865Z,69.19
2017-12-12T05:48:35.360Z,70.13
2017-12-12T05:51:02.881Z,70.57
2017-12-12T05:53:30.415Z,71.09
2017-12-12T05:55:57.954Z,71.78
2017-12-12T05:58:25.693Z,72.22
2017-12-12T06:00:53.185Z,71.70
2017-12-12T06:03:20.669Z,72.48
2017-12-12T06:05:48.199Z,72.98
2017-12-12T06:08:15.696Z,73.00
2017-12-12T06:10:43.186Z,73.21
2017-12-12T06:13:10.675Z,72.34
2017-12-12T06:15:38.233Z,73.54
2017-12-12T06:18:05.725Z,74.44
2017-12-12T06:20:33.209Z,71.64
2017-12-12T06:23:00.741Z,71.02
2017-12-12T06:25:28.239Z,69.27
2017-12-12T06:27:55.969Z,70.06
2017-12-12T06:30:23.490Z,69.11
2017-12-12T06:32:50.988Z,68.54
2017-12-12T06:35:18.784Z,69.73
2017-12-12T06:37:46.298Z,68.46
2017-12-12T06:40:13.788Z,68.91
2017-12-12T06:42:41.301Z,68.68
2017-12-12T06:45:08.817Z,68.39
2017-12-12T06:47:36.407Z,69.96
2017-12-12T06:50:03.931Z,69.42
2017-12-12T06:52:31.445Z,69.60
2017-12-12T06:54:58.941Z,69.17
2017-12-12T06:57:26.669Z,69.55
2017-12-12T06:59:54.176Z,68.93
2017-12-12T07:02:21.675Z,70.45
2017-12-12T07:04:49.201Z,68.77
2017-12-12T07:07:16.723Z,69.45
2017-12-12T07:09:44.395Z,68.99
2017-12-12T07:12:12.061Z,69.75
2017-12-12T07:14:39.617Z,69.30
2017-12-12T07:17:07.138Z,69.34
2017-12-12T07:19:34.651Z,69.78
2017-12-12T07:22:02.190Z,69.86
2017-12-12T07:24:29.714Z,69.20
2017-12-12T07:26:57.224Z,69.37
2017-12-12T07:29:24.781Z,69.39
2017-12-12T07:31:52.286Z,69.23
2017-12-12T07:34:19.786Z,70.07
2017-12-12T07:36:47.298Z,69.30
2017-12-12T07:39:14.783Z,72.37
2017-12-12T07:41:42.302Z,69.02
2017-12-12T07:44:09.781Z,70.21
2017-12-12T07:46:37.278Z,70.30
2017-12-12T07:49:05.298Z,70.83
2017-12-12T07:51:32.782Z,70.56
2017-12-12T07:54:00.270Z,70.62
2017-12-12T07:56:27.793Z,70.04
2017-12-12T07:58:55.282Z,71.11
2017-12-12T08:01:22.757Z,71.04
2017-12-12T08:03:50.269Z,68.75
2017-12-12T08:06:17.821Z,69.69
2017-12-12T08:08:45.325Z,69.30
2017-12-12T08:11:12.883Z,69.83
2017-12-12T08:13:40.361Z,70.50
2017-12-12T08:16:07.901Z,70.66
2017-12-12T08:18:35.401Z,69.37
2017-12-12T08:21:02.892Z,69.98
2017-12-12T08:23:30.404Z,70.80
2017-12-12T08:25:57.890Z,69.79
2017-12-12T08:28:25.393Z,69.48
2017-12-12T08:30:52.901Z,70.69
2017-12-12T08:33:20.387Z,69.25
2017-12-12T08:35:47.893Z,69.86
2017-12-12T08:38:15.378Z,68.39
2017-12-12T08:40:42.903Z,70.24
2017-12-12T08:43:10.464Z,70.28
2017-12-12T08:45:38.002Z,68.74
2017-12-12T08:48:05.534Z,68.51
2017-12-12T08:50:33.140Z,68.86
2017-12-12T08:53:00.633Z,68.38
2017-12-12T08:55:28.114Z,67.12
2017-12-12T08:57:55.617Z,69.50
2017-12-12T09:00:23.118Z,68.30
2017-12-12T09:02:50.604Z,67.75
2017-12-12T09:05:18.108Z,67.32
2017-12-12T09:07:45.614Z,67.20
2017-12-12T09:10:13.134Z,68.37
2017-12-12T09:12:40.646Z,67.49
2017-12-12T09:15:08.149Z,67.59
2017-12-12T09:17:35.708Z,68.38
2017-12-12T09:20:03.201Z,67.66
2017-12-12T09:22:30.709Z,67.96
2017-12-12T09:24:58.190Z,67.47
2017-12-12T09:27:25.670Z,68.91
2017-12-12T09:29:53.156Z,68.71
2017-12-12T09:32:20.708Z,69.70
2017-12-12T09:34:48.210Z,69.66
2017-12-12T09:37:15.694Z,69.11
2017-12-12T09:39:43.176Z,69.05
2017-12-12T09:42:10.782Z,69.51
2017-12-12T09:44:38.294Z,69.70
2017-12-12T09:47:05.779Z,69.67
2017-12-12T09:49:33.283Z,70.01
2017-12-12T09:52:00.798Z,68.76
2017-12-12T09:54:28.284Z,69.17
2017-12-12T09:56:55.801Z,69.09
2017-12-12T09:59:23.317Z,69.26
2017-12-12T10:01:50.814Z,69.66
2017-12-12T10:04:18.288Z,71.03
2017-12-12T10:06:45.790Z,71.16
2017-12-12T10:09:13.284Z,71.43
2017-12-12T10:11:40.777Z,70.65
2017-12-12T10:14:08.261Z,69.52
2017-12-12T10:16:35.783Z,69.17
2017-12-12T10:19:03.273Z,70.26
2017-12-12T10:21:30.782Z,69.86
2017-12-12T10:23:58.334Z,69.34
2017-12-12T10:26:25.893Z,69.80
2017-12-12T10:28:53.417Z,69.37
2017-12-12T10:31:20.967Z,70.57
2017-12-12T10:33:48.533Z,71.76
2017-12-12T10:36:16.143Z,71.25
2017-12-12T10:38:43.689Z,71.84
2017-12-12T10:41:11.181Z,72.53
2017-12-12T10:43:38.687Z,71.95
2017-12-12T10:46:06.258Z,71.52
2017-12-12T10:48:33.785Z,72.05
2017-12-12T10:51:01.315Z,72.26
2017-12-12T10:53:28.833Z,71.94
2017-12-12T10:55:56.316Z,71.33
2017-12-12T10:58:23.856Z,72.41
2017-12-12T11:00:51.350Z,70.17
2017-12-12T11:03:18.842Z,70.88
2017-12-12T11:05:46.321Z,70.46
2017-12-12T11:08:13.812Z,70.59
2017-12-12T11:10:41.397Z,69.37
2017-12-12T11:13:08.910Z,70.48
2017-12-12T11:15:36.420Z,70.37
2017-12-12T11:18:03.908Z,70.13
2017-12-12T11:20:31.417Z,70.08
2017-12-12T11:22:58.917Z,69.56
2017-12-12T11:25:26.410Z,71.12
2017-12-12T11:27:53.922Z,70.30
2017-12-12T11:30:21.445Z,69.68
2017-12-12T11:32:48.924Z,70.58
2017-12-12T11:35:16.453Z,70.19
2017-12-12T11:37:43.958Z,70.12
2017-12-12T11:40:11.453Z,69.67
2017-12-12T11:42:38.981Z,69.30
2017-12-12T11:45:06.476Z,69.28
2017-12-12T11:47:33.962Z,68.97
2017-12-12T11:50:01.469Z,69.51
2017-12-12T11:52:28.999Z,67.59
2017-12-12T11:54:56.488Z,69.79
2017-12-12T11:57:23.978Z,67.85
2017-12-12T11:59:51.470Z,68.55
2017-12-12T12:02:19.038Z,68.28
2017-12-12T12:04:46.526Z,68.39
2017-12-12T12:07:14.020Z,67.96
2017-12-12T12:09:41.516Z,68.06
2017-12-12T12:12:09.015Z,67.00
2017-12-12T12:14:36.509Z,67.33
2017-12-12T12:17:04.014Z,67.12
2017-12-12T12:19:31.513Z,66.68
2017-12-12T12:21:59.041Z,65.17
2017-12-12T12:24:26.533Z,67.88
2017-12-12T12:26:54.028Z,66.66
2017-12-12T12:29:21.521Z,66.72
2017-12-12T12:31:49.816Z,67.63
2017-12-12T12:34:17.322Z,68.47
2017-12-12T12:36:44.849Z,68.38
2017-12-12T12:39:12.380Z,67.81
2017-12-12T12:41:40.744Z,67.41
2017-12-12T12:44:08.276Z,67.65
2017-12-12T12:46:35.807Z,67.48
2017-12-12T12:49:03.321Z,67.68
2017-12-12T12:51:30.815Z,67.57
2017-12-12T12:53:58.329Z,67.51
2017-12-12T12:56:25.875Z,68.08
2017-12-12T12:58:53.364Z,66.96
2017-12-12T13:01:20.948Z,66.60
2017-12-12T13:03:48.395Z,66.16
2017-12-12T13:06:15.890Z,66.07
2017-12-12T13:08:43.421Z,66.14
2017-12-12T13:11:10.933Z,65.67
2017-12-12T13:13:38.421Z,66.19
2017-12-12T13:16:06.068Z,66.89
2017-12-12T13:18:33.585Z,64.87
2017-12-12T13:21:01.094Z,64.81
2017-12-12T13:23:29.504Z,64.02
2017-12-12T13:25:57.029Z,61.24
2017-12-12T13:28:24.520Z,61.52
2017-12-12T13:30:52.558Z,62.15
2017-12-12T13:33:20.036Z,60.76
2017-12-12T13:35:47.513Z,57.75
2017-12-12T13:38:15.016Z,58.69
2017-12-12T13:40:42.506Z,60.70
2017-12-12T13:43:10.034Z,58.99
2017-12-12T13:45:37.550Z,62.34
2017-12-12T13:48:05.064Z,65.29
2017-12-12T13:50:32.550Z,64.33
2017-12-12T13:53:00.044Z,65.75
2017-12-12T13:55:27.541Z,66.18
2017-12-12T13:57:55.018Z,65.22
2017-12-12T14:00:22.512Z,65.45
2017-12-12T14:02:50.027Z,66.24
2017-12-12T14:05:17.530Z,66.46
2017-12-12T14:07:45.018Z,66.08
2017-12-12T14:10:12.519Z,66.71
2017-12-12T14:12:40.017Z,66.99
2017-12-12T14:15:07.523Z,66.26
2017-12-12T14:17:35.030Z,67.74
2017-12-12T14:20:02.510Z,67.28
2017-12-12T14:22:30.009Z,66.70
2017-12-12T14:24:57.539Z,68.61
2017-12-12T14:27:25.024Z,67.80
2017-12-12T14:29:52.513Z,68.52
2017-12-12T14:32:20.013Z,68.92
2017-12-12T14:34:47.509Z,68.89
2017-12-12T14:37:15.018Z,68.74
2017-12-12T14:39:42.535Z,68.21
2017-12-12T14:42:10.036Z,69.04
2017-12-12T14:44:37.573Z,69.65
2017-12-12T14:47:05.065Z,69.66
2017-12-12T14:49:32.545Z,70.32
2017-12-12T14:52:00.046Z,70.25
2017-12-12T14:54:28.583Z,68.46
2017-12-12T14:56:56.203Z,68.75
2017-12-12T14:59:23.716Z,69.51
2017-12-12T15:01:51.668Z,70.90
2017-12-12T15:04:19.157Z,69.94
2017-12-12T15:06:46.641Z,70.04
2017-12-12T15:09:14.178Z,69.73
2017-12-12T15:11:41.682Z,70.61
2017-12-12T15:14:09.160Z,70.06
2017-12-12T15:16:37.229Z,70.81
2017-12-12T15:19:04.730Z,70.97
2017-12-12T15:21:32.233Z,70.62
2017-12-12T15:23:59.714Z,71.42
2017-12-12T15:26:27.227Z,71.02
2017-12-12T15:28:54.730Z,72.24
2017-12-12T15:31:22.220Z,72.78
2017-12-12T15:33:49.733Z,73.01
2017-12-12T15:36:18.198Z,73.35
2017-12-12T15:38:45.728Z,74.02
2017-12-12T15:41:13.240Z,74.99
2017-12-12T15:43:40.726Z,74.85
2017-12-12T15:46:08.233Z,75.10
2017-12-12T15:48:35.757Z,75.43
2017-12-12T15:51:03.257Z,74.74
2017-12-12T15:53:30.775Z,74.66
2017-12-12T15:55:58.264Z,75.28
2017-12-12T15:58:25.846Z,76.17
2017-12-12T16:00:53.642Z,75.98
2017-12-12T16:03:21.126Z,78.83
2017-12-12T16:05:48.654Z,79.12
2017-12-12T16:08:16.161Z,79.23
2017-12-12T16:10:44.597Z,79.95
2017-12-12T16:13:12.096Z,81.61
2017-12-12T16:15:39.641Z,82.57
2017-12-12T16:18:07.142Z,84.63
2017-12-12T16:20:34.648Z,85.21
2017-12-12T16:23:02.326Z,86.40
2017-12-12T16:25:29.818Z,87.07
2017-12-12T16:27:57.308Z,87.60
2017-12-12T16:30:24.843Z,87.59
2017-12-12T16:32:52.553Z,87.04
2017-12-12T16:35:20.043Z,87.14
2017-12-12T16:37:47.525Z,86.79
2017-12-12T16:40:15.033Z,86.49
2017-12-12T16:42:42.537Z,86.13
2017-12-12T16:45:10.048Z,84.92
2017-12-12T16:47:37.547Z,85.76
2017-12-12T16:50:05.045Z,84.18
2017-12-12T16:52:32.560Z,86.19
2017-12-12T16:55:00.050Z,87.77
2017-12-12T16:57:27.561Z,87.78
2017-12-12T16:59:55.063Z,88.52
2017-12-12T17:02:22.583Z,88.40
2017-12-12T17:04:50.096Z,89.08
2017-12-12T17:07:17.638Z,88.92
2017-12-12T17:09:45.141Z,89.83
2017-12-12T17:12:12.645Z,91.20
2017-12-12T17:14:40.160Z,90.93
2017-12-12T17:17:07.800Z,91.13
2017-12-12T17:19:35.306Z,91.48
2017-12-12T17:22:02.835Z,92.23
2017-12-12T17:24:30.439Z,91.79
2017-12-12T17:26:57.940Z,91.64
2017-12-12T17:29:25.565Z,91.74
2017-12-12T17:31:53.068Z,92.45
2017-12-12T17:34:20.622Z,92.32
2017-12-12T17:36:48.144Z,91.72
2017-12-12T17:39:15.649Z,92.24
2017-12-12T17:41:43.151Z,92.59
2017-12-12T17:44:10.650Z,92.25
2017-12-12T17:46:38.145Z,90.39
2017-12-12T17:49:05.666Z,90.32
2017-12-12T17:51:33.190Z,91.34
2017-12-12T17:54:00.743Z,91.86
2017-12-12T17:56:28.317Z,90.05
2017-12-12T17:58:55.835Z,88.88
2017-12-12T18:01:23.388Z,87.93
2017-12-12T18:03:50.879Z,90.72
2017-12-12T18:06:18.408Z,91.33
2017-12-12T18:08:45.962Z,90.10
2017-12-12T18:11:13.526Z,90.79
2017-12-12T18:13:41.059Z,90.46
2017-12-12T18:16:08.633Z,91.47
2017-12-12T18:18:36.161Z,92.01
2017-12-12T18:21:03.785Z,91.49
2017-12-12T18:23:31.314Z,90.45
2017-12-12T18:25:58.852Z,88.45
2017-12-12T18:28:26.420Z,89.20
2017-12-12T18:30:53.969Z,89.09
2017-12-12T18:33:21.520Z,88.55
2017-12-12T18:35:49.070Z,91.99
2017-12-12T18:38:16.605Z,91.85
2017-12-12T18:40:44.128Z,90.11
2017-12-12T18:43:11.680Z,91.06
2017-12-12T18:45:39.239Z,91.00
2017-12-12T18:48:06.822Z,90.67
2017-12-12T18:50:34.399Z,89.52
2017-12-12T18:53:01.936Z,89.96
2017-12-12T18:55:29.485Z,90.05
2017-12-12T18:57:57.007Z,91.09
2017-12-12T19:00:24.761Z,90.16
2017-12-12T19:02:52.479Z,90.19
2017-12-12T19:05:20.028Z,91.68
2017-12-12T19:07:47.566Z,92.79
2017-12-12T19:10:15.095Z,90.99
2017-12-12T19:12:42.613Z,90.28
2017-12-12T19:15:10.134Z,90.11
2017-12-12T19:17:37.626Z,90.95
2017-12-12T19:20:05.151Z,89.59
2017-12-12T19:22:32.685Z,89.58
2017-12-12T19:25:00.177Z,88.56
2017-12-12T19:27:27.845Z,89.12
2017-12-12T19:29:55.385Z,90.02
2017-12-12T19:32:22.881Z,89.43
2017-12-12T19:34:50.430Z,90.54
2017-12-12T19:37:17.963Z,91.71
2017-12-12T19:39:45.461Z,92.98
2017-12-12T19:42:12.997Z,93.47
2017-12-12T19:44:40.533Z,93.29
2017-12-12T19:47:08.096Z,92.23
2017-12-12T19:49:35.611Z,93.58
2017-12-12T19:52:03.142Z,92.70
2017-12-12T19:54:30.722Z,93.22
2017-12-12T19:56:58.221Z,93.19
2017-12-12T19:59:25.810Z,93.58
2017-12-12T20:01:53.336Z,93.42
2017-12-12T20:04:20.886Z,94.20
2017-12-12T20:06:48.429Z,95.02
2017-12-12T20:09:15.982Z,95.72
2017-12-12T20:11:43.481Z,95.29
2017-12-12T20:14:11.056Z,94.85
2017-12-12T20:16:38.611Z,93.35
2017-12-12T20:19:06.168Z,93.95
2017-12-12T20:21:33.729Z,94.98
2017-12-12T20:24:01.286Z,95.01
2017-12-12T20:26:28.858Z,94.14
2017-12-12T20:28:56.561Z,92.96
2017-12-12T20:31:24.109Z,92.54
2017-12-12T20:33:51.633Z,93.19
2017-12-12T20:36:19.184Z,94.00
2017-12-12T20:38:46.742Z,94.68
2017-12-12T20:41:14.398Z,94.69
2017-12-12T20:43:41.933Z,93.90
2017-12-12T20:46:09.456Z,93.97
2017-12-12T20:48:36.994Z,94.53
2017-12-12T20:51:04.520Z,93.87
2017-12-12T20:53:32.089Z,93.30
2017-12-12T20:55:59.629Z,91.34
2017-12-12T20:58:27.160Z,90.79
2017-12-12T21:00:54.710Z,92.70
2017-12-12T21:03:22.244Z,93.98
2017-12-12T21:05:49.786Z,93.20
2017-12-12T21:08:17.301Z,93.12
2017-12-12T21:10:44.820Z,92.28
2017-12-12T21:13:12.358Z,92.99
2017-12-12T21:15:39.892Z,93.35
2017-12-12T21:18:07.532Z,93.96
2017-12-12T21:20:35.032Z,92.95
2017-12-12T21:23:02.528Z,92.66
2017-12-12T21:25:30.067Z,93.49
2017-12-12T21:27:57.588Z,92.63
2017-12-12T21:30:25.152Z,91.73
2017-12-12T21:32:52.688Z,90.62
2017-12-12T21:35:20.202Z,91.71
2017-12-12T21:37:47.733Z,91.36
2017-12-12T21:40:15.289Z,91.89
2017-12-12T21:42:42.824Z,94.38
2017-12-12T21:45:10.324Z,94.73
2017-12-12T21:47:37.831Z,94.92
2017-12-12T21:50:05.353Z,94.55
2017-12-12T21:52:32.914Z,93.73
2017-12-12T21:55:00.439Z,93.43
2017-12-12T21:57:27.941Z,94.79
2017-12-12T21:59:55.452Z,94.68
2017-12-12T22:02:22.950Z,94.41
2017-12-12T22:04:50.494Z,94.32
2017-12-12T22:07:18.026Z,94.79
2017-12-12T22:09:45.598Z,94.81
2017-12-12T22:12:13.133Z,95.46
2017-12-12T22:14:40.646Z,95.55
2017-12-12T22:17:08.162Z,95.00
2017-12-12T22:19:35.693Z,95.39
2017-12-12T22:22:03.196Z,95.97
2017-12-12T22:24:30.723Z,96.41
2017-12-12T22:26:58.259Z,96.98
2017-12-12T22:29:25.785Z,96.36
2017-12-12T22:31:53.290Z,95.31
2017-12-12T22:34:20.796Z,96.01
2017-12-12T22:36:48.317Z,96.06
2017-12-12T22:39:15.816Z,95.55
2017-12-12T22:41:43.357Z,95.61
2017-12-12T22:44:10.859Z,96.89
2017-12-12T22:46:40.413Z,96.96
2017-12-12T22:49:07.902Z,95.81
2017-12-12T22:51:35.433Z,95.48
2017-12-12T22:54:02.966Z,94.65
2017-12-12T22:56:30.487Z,94.83
2017-12-12T22:58:58.014Z,94.84
2017-12-12T23:01:25.588Z,95.38
2017-12-12T23:03:53.092Z,95.81
2017-12-12T23:06:20.609Z,95.71
2017-12-12T23:08:48.163Z,95.26
2017-12-12T23:44:46.174Z,96.02
2017-12-12T23:47:13.698Z,96.09
2017-12-12T23:49:41.214Z,96.77
2017-12-12T23:52:08.763Z,96.75
2017-12-12T23:54:36.289Z,96.66
2017-12-12T23:57:03.829Z,96.53
2017-12-12T23:59:31.358Z,95.51
